Orbital elements of ARIANE 44LP DEB
| Launched | 10 December 1988 |
| Flight ended | – |
| Launch site | Europe's Spaceport, Kourou, French Guiana |
| Owner | France |
| NORAD ID | 33547 |
| Date fetched |
Epoch osculation |
Inc. [°] |
Ecc. | RA asc node [hr] |
Arg Peri. [°] |
Mean anom [°] |
Mean motion [rev/day] |
Abs. mag |
| Date fetched |
Epoch osculation |
Inc. [°] |
Ecc. | RA asc node [hr] |
Arg Peri. [°] |
Mean anom [°] |
Mean motion [rev/day] |
Abs. mag |
| 2026 May 09 17:57 | 2026 May 05 02:45:45 | 6.4369 | 0.70360 | 15.6977 | 60.4547 | 351.1152 | 2.40139 | – |
| 2026 May 08 17:57 | 2026 May 05 02:45:45 | 6.4369 | 0.70360 | 15.6977 | 60.4547 | 351.1152 | 2.40139 | – |
| 2026 May 07 17:58 | 2026 May 05 02:45:45 | 6.4369 | 0.70360 | 15.6977 | 60.4547 | 351.1152 | 2.40139 | – |
| 2026 May 06 17:57 | 2026 May 05 02:45:45 | 6.4369 | 0.70360 | 15.6977 | 60.4547 | 351.1152 | 2.40139 | – |
| 2026 May 05 17:57 | 2026 May 05 02:45:45 | 6.4369 | 0.70360 | 15.6977 | 60.4547 | 351.1152 | 2.40139 | – |
| 2026 May 04 17:57 | 2026 Apr 29 16:51:46 | 6.4437 | 0.70365 | 15.8523 | 56.0203 | 351.1152 | 2.40139 | – |
| 2026 May 03 17:57 | 2026 Apr 29 16:51:46 | 6.4437 | 0.70365 | 15.8523 | 56.0203 | 351.1152 | 2.40139 | – |
| 2026 May 02 17:57 | 2026 Apr 29 16:51:46 | 6.4437 | 0.70365 | 15.8523 | 56.0203 | 351.1152 | 2.40139 | – |
| 2026 May 01 17:56 | 2026 Apr 29 16:51:46 | 6.4437 | 0.70365 | 15.8523 | 56.0203 | 351.1152 | 2.40139 | – |
| 2026 Apr 30 17:56 | 2026 Apr 29 16:51:46 | 6.4437 | 0.70365 | 15.8523 | 56.0203 | 351.1152 | 2.40139 | – |
| 2026 Apr 29 17:57 | 2026 Apr 24 06:57:59 | 6.4575 | 0.70389 | 16.0084 | 51.5609 | 351.1152 | 2.40139 | – |
| 2026 Apr 28 17:56 | 2026 Apr 24 06:57:59 | 6.4575 | 0.70389 | 16.0084 | 51.5609 | 351.1152 | 2.40139 | – |
| 2026 Apr 27 17:58 | 2026 Apr 24 06:57:59 | 6.4575 | 0.70389 | 16.0084 | 51.5609 | 351.1152 | 2.40139 | – |
| 2026 Apr 26 17:58 | 2026 Apr 24 06:57:59 | 6.4575 | 0.70389 | 16.0084 | 51.5609 | 351.1152 | 2.40139 | – |
| 2026 Apr 25 17:58 | 2026 Apr 24 06:57:59 | 6.4575 | 0.70389 | 16.0084 | 51.5609 | 351.1152 | 2.40139 | – |
| 2026 Apr 24 17:59 | 2026 Apr 24 06:57:59 | 6.4575 | 0.70389 | 16.0084 | 51.5609 | 351.1152 | 2.40139 | – |
| 2026 Apr 23 17:57 | 2026 Apr 19 07:03:44 | 6.4758 | 0.70399 | 16.1546 | 47.4077 | 351.1152 | 2.40139 | – |
| 2026 Apr 22 17:57 | 2026 Apr 19 07:03:44 | 6.4758 | 0.70399 | 16.1546 | 47.4077 | 351.1152 | 2.40139 | – |
| 2026 Apr 21 17:57 | 2026 Apr 19 07:03:44 | 6.4758 | 0.70399 | 16.1546 | 47.4077 | 351.1152 | 2.40139 | – |
| 2026 Apr 20 17:57 | 2026 Apr 19 07:03:44 | 6.4758 | 0.70399 | 16.1546 | 47.4077 | 351.1152 | 2.40139 | – |
| 2026 Apr 19 17:58 | 2026 Apr 19 07:03:44 | 6.4758 | 0.70399 | 16.1546 | 47.4077 | 351.1152 | 2.40139 | – |
| 2026 Apr 18 17:56 | 2026 Apr 13 01:11:09 | 6.4960 | 0.70415 | 16.3334 | 42.2742 | 351.1152 | 2.40139 | – |
| 2026 Apr 16 17:57 | 2026 Apr 13 01:11:09 | 6.4960 | 0.70415 | 16.3334 | 42.2742 | 351.1152 | 2.40139 | – |
| 2026 Apr 14 17:57 | 2026 Apr 13 01:11:09 | 6.4960 | 0.70415 | 16.3334 | 42.2742 | 351.1152 | 2.40139 | – |
| 2026 Apr 13 17:57 | 2026 Apr 13 01:11:09 | 6.4960 | 0.70415 | 16.3334 | 42.2742 | 351.1152 | 2.40139 | – |
| 2026 Apr 12 17:57 | 2026 Apr 08 11:16:40 | 6.5093 | 0.70428 | 16.4625 | 38.5422 | 351.1152 | 2.40139 | – |